Time;durP1;ratioP1;P1;durP2;ratioP2;P2;SDS_P1;SDS_P2;PMS_P1;PMS_P2;Temp;Humidity;BMP_temperature;BMP_pressure;BME280_temperature;BME280_humidity;BME280_pressure;Samples;Min_cycle;Max_cycle;Signal;HPM_P1;HPM_P2
2023/09/23 00:00:03;;;;;;;;;;;21.30;61.10;;;;;;5151866;27;19908;-54
2023/09/23 00:02:28;;;;;;;;;;;21.30;61.10;;;;;;5151753;27;20394;-55
2023/09/23 00:04:54;;;;;;;;;;;21.30;61.10;;;;;;5151904;27;19907;-55
2023/09/23 00:07:19;;;;;;;;;;;21.30;61.20;;;;;;5133186;27;19907;-55
2023/09/23 00:09:45;;;;;;;;;;;21.30;61.20;;;;;;5151665;27;19915;-54
2023/09/23 00:12:12;;;;;;;;;;;21.30;61.30;;;;;;5133188;27;19919;-55
2023/09/23 00:14:37;;;;;;;;;;;21.30;61.30;;;;;;5138065;27;20018;-55
2023/09/23 00:17:03;;;;;;;;;;;21.30;61.40;;;;;;5130891;28;20399;-54
2023/09/23 00:19:33;;;;;;;;;;;21.30;61.40;;;;;;5130794;28;19907;-55
2023/09/23 00:21:59;;;;;;;;;;;21.30;61.40;;;;;;5131115;28;20383;-54
2023/09/23 00:24:25;;;;;;;;;;;21.30;61.50;;;;;;5130685;28;19908;-55
2023/09/23 00:26:51;;;;;;;;;;;21.30;61.40;;;;;;5130783;28;19940;-55
2023/09/23 00:29:17;;;;;;;;;;;21.30;61.60;;;;;;5130635;28;19908;-55
2023/09/23 00:31:43;;;;;;;;;;;21.20;61.60;;;;;;5130606;28;20428;-55
2023/09/23 00:34:09;;;;;;;;;;;21.20;61.70;;;;;;5130858;28;19908;-54
2023/09/23 00:36:35;;;;;;;;;;;21.30;61.70;;;;;;5130423;28;20417;-54
2023/09/23 00:39:06;;;;;;;;;;;21.30;61.70;;;;;;5112316;28;20339;-55
2023/09/23 00:41:32;;;;;;;;;;;21.30;61.70;;;;;;5130673;28;19908;-55
2023/09/23 00:43:58;;;;;;;;;;;21.20;61.60;;;;;;5130401;28;20339;-55
2023/09/23 00:46:23;;;;;;;;;;;21.30;61.80;;;;;;5130296;28;19912;-55
2023/09/23 00:48:49;;;;;;;;;;;21.30;61.90;;;;;;5130372;28;20360;-55
2023/09/23 00:51:14;;;;;;;;;;;21.20;61.80;;;;;;5129974;28;19919;-55
2023/09/23 00:53:40;;;;;;;;;;;21.20;61.80;;;;;;5094859;28;19915;-55
2023/09/23 00:56:05;;;;;;;;;;;21.20;61.90;;;;;;5111651;28;19907;-55
2023/09/23 00:58:31;;;;;;;;;;;21.20;62.00;;;;;;5112110;28;20351;-54
2023/09/23 01:00:56;;;;;;;;;;;21.20;62.10;;;;;;5130078;28;19908;-55
2023/09/23 01:03:22;;;;;;;;;;;21.20;62.30;;;;;;5101614;28;20010;-55
2023/09/23 01:05:49;;;;;;;;;;;21.10;62.40;;;;;;5116384;28;20419;-55
2023/09/23 01:08:18;;;;;;;;;;;21.10;62.50;;;;;;5098198;28;19999;-55
2023/09/23 01:10:44;;;;;;;;;;;21.10;62.70;;;;;;5116181;28;19912;-55
2023/09/23 01:13:19;;;;;;;;;;;21.10;62.70;;;;;;5097828;28;19999;-54
2023/09/23 01:15:46;;;;;;;;;;;21.10;62.70;;;;;;5097807;28;19959;-55
2023/09/23 01:18:24;;;;;;;;;;;21.10;62.70;;;;;;5116121;28;19995;-55
2023/09/23 01:20:51;;;;;;;;;;;21.10;62.70;;;;;;5097877;28;19951;-54
2023/09/23 01:23:17;;;;;;;;;;;21.10;62.70;;;;;;5115850;28;20379;-54
2023/09/23 01:25:43;;;;;;;;;;;21.10;62.70;;;;;;5115788;28;19908;-54
2023/09/23 01:28:11;;;;;;;;;;;21.10;62.70;;;;;;5115856;28;19915;-54
2023/09/23 01:30:45;;;;;;;;;;;21.10;62.60;;;;;;5115749;28;20298;-54
2023/09/23 01:33:12;;;;;;;;;;;21.10;62.70;;;;;;5115833;28;19919;-55
2023/09/23 01:35:38;;;;;;;;;;;21.10;62.70;;;;;;5115887;28;19949;-55
2023/09/23 01:38:03;;;;;;;;;;;21.10;62.80;;;;;;5115591;28;19996;-55
2023/09/23 01:40:32;;;;;;;;;;;21.10;62.80;;;;;;5097396;28;20011;-54
2023/09/23 01:42:58;;;;;;;;;;;21.10;62.90;;;;;;5115586;28;19908;-55
2023/09/23 01:45:23;;;;;;;;;;;21.10;62.80;;;;;;5115536;28;19908;-55
2023/09/23 01:47:49;;;;;;;;;;;21.10;62.80;;;;;;5097192;28;19907;-55
2023/09/23 01:50:17;;;;;;;;;;;21.10;62.90;;;;;;5115108;28;19990;-54
2023/09/23 01:52:43;;;;;;;;;;;21.10;63.00;;;;;;5122262;28;20018;-54
2023/09/23 01:55:10;;;;;;;;;;;21.10;63.00;;;;;;5097072;28;19954;-55
2023/09/23 01:57:36;;;;;;;;;;;21.10;63.00;;;;;;5115282;28;19915;-55
2023/09/23 02:00:04;;;;;;;;;;;21.10;63.10;;;;;;5115203;28;19987;-55
2023/09/23 02:02:30;;;;;;;;;;;21.10;63.10;;;;;;5115187;28;20335;-54
2023/09/23 02:04:56;;;;;;;;;;;21.10;63.10;;;;;;5115195;28;19952;-55
2023/09/23 02:07:22;;;;;;;;;;;21.10;63.10;;;;;;5114982;28;19918;-55
2023/09/23 02:09:47;;;;;;;;;;;21.10;63.20;;;;;;5115095;28;20347;-54
2023/09/23 02:12:14;;;;;;;;;;;21.00;63.20;;;;;;5114959;28;19912;-55
2023/09/23 02:14:40;;;;;;;;;;;21.00;63.30;;;;;;5113842;28;19907;-54
2023/09/23 02:17:05;;;;;;;;;;;21.00;63.40;;;;;;5114983;28;20030;-54
2023/09/23 02:19:31;;;;;;;;;;;21.00;63.60;;;;;;5114876;28;19919;-55
2023/09/23 02:21:56;;;;;;;;;;;21.00;63.60;;;;;;5114837;28;19911;-55
2023/09/23 02:24:22;;;;;;;;;;;21.00;63.60;;;;;;5114696;28;19957;-54
2023/09/23 02:26:48;;;;;;;;;;;21.00;63.60;;;;;;5114726;28;19907;-55
2023/09/23 02:29:17;;;;;;;;;;;21.00;63.60;;;;;;5114740;28;19908;-54
2023/09/23 02:31:47;;;;;;;;;;;21.00;63.60;;;;;;5114548;28;19918;-55
2023/09/23 02:34:14;;;;;;;;;;;21.00;63.70;;;;;;5114526;28;19914;-54
2023/09/23 02:36:41;;;;;;;;;;;21.00;63.70;;;;;;5114512;28;19912;-54
2023/09/23 02:39:06;;;;;;;;;;;21.00;63.70;;;;;;5114459;28;19908;-53
2023/09/23 02:41:33;;;;;;;;;;;21.00;63.80;;;;;;5114771;28;20287;-55
2023/09/23 02:43:58;;;;;;;;;;;21.00;63.90;;;;;;5114598;28;19914;-55
2023/09/23 02:46:23;;;;;;;;;;;21.00;64.00;;;;;;5114279;28;19907;-55
2023/09/23 02:48:49;;;;;;;;;;;21.00;64.10;;;;;;5114286;28;19919;-54
2023/09/23 02:51:14;;;;;;;;;;;21.00;64.10;;;;;;5095732;28;19976;-54
2023/09/23 02:53:40;;;;;;;;;;;21.00;64.20;;;;;;5114349;28;19943;-54
2023/09/23 02:56:06;;;;;;;;;;;21.00;64.30;;;;;;5114238;28;19934;-53
2023/09/23 02:58:32;;;;;;;;;;;20.90;64.20;;;;;;5113981;28;19908;-54
2023/09/23 03:00:58;;;;;;;;;;;20.90;64.20;;;;;;5095721;28;19908;-55
2023/09/23 03:03:24;;;;;;;;;;;21.00;64.40;;;;;;5114052;28;19907;-55
2023/09/23 03:05:55;;;;;;;;;;;21.00;64.30;;;;;;5113949;28;19930;-54
2023/09/23 03:08:21;;;;;;;;;;;20.90;64.20;;;;;;5120734;28;20430;-55
2023/09/23 03:10:46;;;;;;;;;;;20.90;64.30;;;;;;5113753;28;20315;-53
2023/09/23 03:13:12;;;;;;;;;;;20.90;64.40;;;;;;5113844;28;19907;-54
2023/09/23 03:15:41;;;;;;;;;;;20.90;64.40;;;;;;5095440;28;19911;-55
2023/09/23 03:18:07;;;;;;;;;;;20.90;64.40;;;;;;5113795;28;19990;-55
2023/09/23 03:20:34;;;;;;;;;;;20.90;64.40;;;;;;5113694;28;20315;-55
2023/09/23 03:22:59;;;;;;;;;;;21.00;64.60;;;;;;5113600;28;19908;-55
2023/09/23 03:25:25;;;;;;;;;;;20.90;64.50;;;;;;5113356;28;19908;-55
2023/09/23 03:27:51;;;;;;;;;;;20.90;64.50;;;;;;5113582;28;20291;-55
2023/09/23 03:30:17;;;;;;;;;;;20.90;64.50;;;;;;5095320;28;19914;-55
2023/09/23 03:32:43;;;;;;;;;;;20.90;64.70;;;;;;5113453;28;20409;-54
2023/09/23 03:35:13;;;;;;;;;;;20.90;64.70;;;;;;5113659;28;19908;-54
2023/09/23 03:37:39;;;;;;;;;;;20.90;64.90;;;;;;5095299;28;19907;-54
2023/09/23 03:40:07;;;;;;;;;;;20.90;64.90;;;;;;5113458;28;20368;-55
2023/09/23 03:42:33;;;;;;;;;;;20.90;65.10;;;;;;5113314;28;19998;-55
2023/09/23 03:44:58;;;;;;;;;;;20.80;65.10;;;;;;5113622;28;20008;-54
2023/09/23 03:47:25;;;;;;;;;;;20.80;65.20;;;;;;5113343;28;20437;-54
2023/09/23 03:49:51;;;;;;;;;;;20.80;65.30;;;;;;5113417;28;19933;-55
2023/09/23 03:52:16;;;;;;;;;;;20.80;65.50;;;;;;5113140;28;19928;-54
2023/09/23 03:54:42;;;;;;;;;;;20.80;65.50;;;;;;5113174;28;19953;-55
2023/09/23 03:57:07;;;;;;;;;;;20.80;65.60;;;;;;5113281;28;19908;-54
2023/09/23 03:59:35;;;;;;;;;;;20.70;65.70;;;;;;5113266;28;19907;-54
2023/09/23 04:02:00;;;;;;;;;;;20.70;65.70;;;;;;5113263;28;19957;-55
2023/09/23 04:04:26;;;;;;;;;;;20.70;65.70;;;;;;5113282;28;20283;-55
2023/09/23 04:06:51;;;;;;;;;;;20.70;65.80;;;;;;5113202;28;20318;-55
2023/09/23 04:09:17;;;;;;;;;;;20.70;65.80;;;;;;5113151;28;19908;-54
2023/09/23 04:11:42;;;;;;;;;;;20.70;65.90;;;;;;5113134;28;19966;-54
2023/09/23 04:14:08;;;;;;;;;;;20.70;65.90;;;;;;5094879;28;20323;-55
2023/09/23 04:16:33;;;;;;;;;;;20.70;65.90;;;;;;5113198;28;19965;-55
2023/09/23 04:18:58;;;;;;;;;;;20.70;65.90;;;;;;5113043;28;19915;-55
2023/09/23 04:21:25;;;;;;;;;;;20.70;65.90;;;;;;5113117;28;19908;-55
2023/09/23 04:23:52;;;;;;;;;;;20.70;65.90;;;;;;5113052;28;19907;-55
2023/09/23 04:26:21;;;;;;;;;;;20.70;65.80;;;;;;5094894;28;19907;-55
2023/09/23 04:28:52;;;;;;;;;;;20.70;65.80;;;;;;5113008;28;19954;-55
2023/09/23 04:31:18;;;;;;;;;;;20.70;65.90;;;;;;5112760;28;19919;-55
2023/09/23 04:33:44;;;;;;;;;;;20.70;65.90;;;;;;5113044;28;19908;-54
2023/09/23 04:36:11;;;;;;;;;;;20.80;66.00;;;;;;5112992;28;20404;-54
2023/09/23 04:38:36;;;;;;;;;;;20.70;66.00;;;;;;5115252;28;20425;-55
2023/09/23 04:41:02;;;;;;;;;;;20.70;66.00;;;;;;5098508;28;19907;-55
2023/09/23 04:43:30;;;;;;;;;;;20.70;66.00;;;;;;5116715;28;19919;-54
2023/09/23 04:45:56;;;;;;;;;;;20.70;66.00;;;;;;5116806;28;19953;-55
2023/09/23 04:48:24;;;;;;;;;;;20.70;66.10;;;;;;5098690;28;19992;-55
2023/09/23 04:50:52;;;;;;;;;;;20.70;66.10;;;;;;5116321;28;19919;-55
2023/09/23 04:53:18;;;;;;;;;;;20.70;66.20;;;;;;5116559;28;19915;-55
2023/09/23 04:55:45;;;;;;;;;;;20.70;66.30;;;;;;5116612;28;19908;-54
2023/09/23 04:58:13;;;;;;;;;;;20.70;66.20;;;;;;5116465;28;19941;-55
2023/09/23 05:00:38;;;;;;;;;;;20.70;66.30;;;;;;5097971;28;19912;-55
2023/09/23 05:03:05;;;;;;;;;;;20.70;66.30;;;;;;5116477;28;19999;-54
2023/09/23 05:05:31;;;;;;;;;;;20.70;66.30;;;;;;5116331;28;19908;-55
2023/09/23 05:07:56;;;;;;;;;;;20.70;66.40;;;;;;5116277;28;20002;-54
2023/09/23 05:10:23;;;;;;;;;;;20.70;66.40;;;;;;5116140;28;20279;-54
2023/09/23 05:12:54;;;;;;;;;;;20.70;66.50;;;;;;5116183;28;19972;-55
2023/09/23 05:15:19;;;;;;;;;;;20.70;66.50;;;;;;5116110;28;19908;-54
2023/09/23 05:17:45;;;;;;;;;;;20.70;66.50;;;;;;5116183;28;20374;-55
2023/09/23 05:20:18;;;;;;;;;;;20.60;66.50;;;;;;5116095;28;19916;-54
2023/09/23 05:22:44;;;;;;;;;;;20.60;66.50;;;;;;5116031;28;19908;-54
2023/09/23 05:25:11;;;;;;;;;;;20.60;66.50;;;;;;5109143;28;20288;-54
2023/09/23 05:27:38;;;;;;;;;;;20.60;66.60;;;;;;5095475;28;19989;-55
2023/09/23 05:30:05;;;;;;;;;;;20.60;66.60;;;;;;5095549;28;19950;-55
2023/09/23 05:32:30;;;;;;;;;;;20.60;66.60;;;;;;5095426;28;20433;-55
2023/09/23 05:35:00;;;;;;;;;;;20.50;66.50;;;;;;5077429;28;19908;-55
2023/09/23 05:37:25;;;;;;;;;;;20.50;66.60;;;;;;5095228;28;19908;-55
2023/09/23 05:39:51;;;;;;;;;;;20.50;66.60;;;;;;5077450;28;20006;-55
2023/09/23 05:42:23;;;;;;;;;;;20.50;66.50;;;;;;5095151;28;19908;-55
2023/09/23 05:44:48;;;;;;;;;;;20.50;66.50;;;;;;5102023;28;19931;-54
2023/09/23 05:47:13;;;;;;;;;;;20.50;66.50;;;;;;5095124;28;19912;-55
2023/09/23 05:49:39;;;;;;;;;;;20.50;66.50;;;;;;5094924;28;19916;-55
2023/09/23 05:52:04;;;;;;;;;;;20.50;66.50;;;;;;5094833;28;19920;-55
2023/09/23 05:54:31;;;;;;;;;;;20.50;66.50;;;;;;5096905;28;19908;-54
2023/09/23 05:56:56;;;;;;;;;;;20.50;66.50;;;;;;5097533;28;19908;-55
2023/09/23 05:59:22;;;;;;;;;;;20.50;66.50;;;;;;5115382;28;19908;-55
2023/09/23 06:01:47;;;;;;;;;;;20.50;66.50;;;;;;5115249;28;19990;-55
2023/09/23 06:04:13;;;;;;;;;;;20.50;66.60;;;;;;5115125;28;20363;-55
2023/09/23 06:06:38;;;;;;;;;;;20.50;66.70;;;;;;5115028;28;20364;-54
2023/09/23 06:09:04;;;;;;;;;;;20.50;66.70;;;;;;5115114;28;19915;-54
2023/09/23 06:11:30;;;;;;;;;;;20.50;66.80;;;;;;5114985;28;19911;-55
2023/09/23 06:13:55;;;;;;;;;;;20.40;66.70;;;;;;5114877;28;19907;-55
2023/09/23 06:16:21;;;;;;;;;;;20.40;66.80;;;;;;5114876;28;19999;-55
2023/09/23 06:18:46;;;;;;;;;;;20.40;66.80;;;;;;5114979;28;19953;-55
2023/09/23 06:21:12;;;;;;;;;;;20.40;66.90;;;;;;5114813;28;19957;-55
2023/09/23 06:23:37;;;;;;;;;;;20.40;66.90;;;;;;5114697;28;19939;-53
2023/09/23 06:26:05;;;;;;;;;;;20.40;66.90;;;;;;5114697;28;19908;-53
2023/09/23 06:28:31;;;;;;;;;;;20.40;66.80;;;;;;5114626;28;19912;-54
2023/09/23 06:30:57;;;;;;;;;;;20.40;66.80;;;;;;5114677;28;19912;-54
2023/09/23 06:33:23;;;;;;;;;;;20.40;66.80;;;;;;5114534;28;20393;-54
2023/09/23 06:35:49;;;;;;;;;;;20.40;66.80;;;;;;5114604;28;19908;-55
2023/09/23 06:38:15;;;;;;;;;;;20.40;66.80;;;;;;5114516;28;19983;-55
2023/09/23 06:40:40;;;;;;;;;;;20.40;66.90;;;;;;5114368;28;20372;-54
2023/09/23 06:43:06;;;;;;;;;;;20.40;66.80;;;;;;5114493;28;19908;-54
2023/09/23 06:45:31;;;;;;;;;;;20.40;66.80;;;;;;5114226;28;19961;-55
2023/09/23 06:47:57;;;;;;;;;;;20.40;66.90;;;;;;5114355;28;20360;-54
2023/09/23 06:50:22;;;;;;;;;;;20.40;66.80;;;;;;5095850;28;19957;-55
2023/09/23 06:52:48;;;;;;;;;;;20.40;66.80;;;;;;5114224;28;20311;-54
2023/09/23 06:55:13;;;;;;;;;;;20.40;66.90;;;;;;5114222;28;19908;-54
2023/09/23 06:57:39;;;;;;;;;;;20.40;66.80;;;;;;5114164;28;19994;-55
2023/09/23 07:00:07;;;;;;;;;;;20.40;66.80;;;;;;5095387;28;20274;-54
2023/09/23 07:02:33;;;;;;;;;;;20.30;66.80;;;;;;5114080;28;19915;-54
2023/09/23 07:04:59;;;;;;;;;;;20.30;66.80;;;;;;5114003;28;19956;-54
2023/09/23 07:07:24;;;;;;;;;;;20.30;66.80;;;;;;5113952;28;19907;-55
2023/09/23 07:09:50;;;;;;;;;;;20.30;66.70;;;;;;5095712;28;19956;-55
2023/09/23 07:12:15;;;;;;;;;;;20.20;66.70;;;;;;5113912;28;20382;-55
2023/09/23 07:14:41;;;;;;;;;;;20.20;66.70;;;;;;5113782;28;20485;-55
2023/09/23 07:17:06;;;;;;;;;;;20.20;66.60;;;;;;5114081;28;20352;-54
2023/09/23 07:19:32;;;;;;;;;;;20.20;66.50;;;;;;5113718;28;19915;-54
2023/09/23 07:21:58;;;;;;;;;;;20.10;66.50;;;;;;5113725;28;20287;-54
2023/09/23 07:24:26;;;;;;;;;;;20.10;66.50;;;;;;5113625;28;19915;-54
2023/09/23 07:26:54;;;;;;;;;;;20.10;66.50;;;;;;5113672;28;19912;-55
2023/09/23 07:29:20;;;;;;;;;;;20.10;66.40;;;;;;5113650;28;19958;-55
2023/09/23 07:31:45;;;;;;;;;;;20.10;66.30;;;;;;5095320;28;19954;-54
2023/09/23 07:34:13;;;;;;;;;;;20.20;66.40;;;;;;5113489;28;19912;-55
2023/09/23 07:36:39;;;;;;;;;;;20.20;66.20;;;;;;5113495;28;19919;-54
2023/09/23 07:39:05;;;;;;;;;;;20.20;66.20;;;;;;5113513;28;20383;-55
2023/09/23 07:41:30;;;;;;;;;;;20.20;66.20;;;;;;5113404;28;19950;-54
2023/09/23 07:43:57;;;;;;;;;;;20.20;66.10;;;;;;5113417;28;20356;-55
2023/09/23 07:46:22;;;;;;;;;;;20.20;66.00;;;;;;5113425;28;19918;-54
2023/09/23 07:48:47;;;;;;;;;;;20.20;65.90;;;;;;5113438;28;19907;-55
2023/09/23 07:51:13;;;;;;;;;;;20.20;65.90;;;;;;5113281;28;20073;-55
2023/09/23 07:53:38;;;;;;;;;;;20.20;66.00;;;;;;5113322;28;20292;-55
2023/09/23 07:56:04;;;;;;;;;;;20.20;66.00;;;;;;5113290;28;19912;-54
2023/09/23 07:58:29;;;;;;;;;;;20.20;65.90;;;;;;5113189;28;19908;-55
2023/09/23 08:00:55;;;;;;;;;;;20.20;65.80;;;;;;5113299;28;20000;-55
2023/09/23 08:03:20;;;;;;;;;;;20.20;65.80;;;;;;5113263;28;19908;-55
2023/09/23 08:05:46;;;;;;;;;;;20.20;65.80;;;;;;5113359;28;20003;-55
2023/09/23 08:08:11;;;;;;;;;;;20.20;65.60;;;;;;5113369;28;19939;-54
2023/09/23 08:10:36;;;;;;;;;;;20.20;65.70;;;;;;5113182;28;19914;-55
2023/09/23 08:13:02;;;;;;;;;;;20.20;65.60;;;;;;5114785;28;20283;-55
2023/09/23 08:15:28;;;;;;;;;;;20.20;65.50;;;;;;5099070;28;19998;-53
2023/09/23 08:17:54;;;;;;;;;;;20.20;65.50;;;;;;5117394;28;19908;-55
2023/09/23 08:20:21;;;;;;;;;;;20.20;65.40;;;;;;5117178;28;19915;-54
2023/09/23 08:22:47;;;;;;;;;;;20.20;65.40;;;;;;5117255;28;19915;-55
2023/09/23 08:25:13;;;;;;;;;;;20.20;65.40;;;;;;5098778;28;19908;-55
2023/09/23 08:27:42;;;;;;;;;;;20.20;65.40;;;;;;5117169;28;19912;-55
2023/09/23 08:30:09;;;;;;;;;;;20.20;65.30;;;;;;5117081;28;19908;-55
2023/09/23 08:32:36;;;;;;;;;;;20.20;65.20;;;;;;5098872;28;19919;-54
2023/09/23 08:35:02;;;;;;;;;;;20.20;65.20;;;;;;5116977;28;19918;-54
2023/09/23 08:37:27;;;;;;;;;;;20.20;65.20;;;;;;5116859;28;20331;-54
2023/09/23 08:39:53;;;;;;;;;;;20.20;65.20;;;;;;5116857;28;19943;-54
2023/09/23 08:42:18;;;;;;;;;;;20.20;65.20;;;;;;5116862;28;19915;-54
2023/09/23 08:44:44;;;;;;;;;;;20.20;65.20;;;;;;5098808;28;19946;-55
2023/09/23 08:47:09;;;;;;;;;;;20.20;65.30;;;;;;5116798;28;20286;-54
2023/09/23 08:49:35;;;;;;;;;;;20.20;65.30;;;;;;5116629;28;19908;-54
2023/09/23 08:52:01;;;;;;;;;;;20.20;65.30;;;;;;5094813;28;19920;-54
2023/09/23 08:54:28;;;;;;;;;;;20.20;65.30;;;;;;5096164;28;19919;-54
2023/09/23 08:56:54;;;;;;;;;;;20.20;65.30;;;;;;5096589;28;19908;-55
2023/09/23 08:59:20;;;;;;;;;;;20.10;65.30;;;;;;5096123;28;20253;-55
2023/09/23 09:01:45;;;;;;;;;;;20.10;65.20;;;;;;5096149;28;19962;-54
2023/09/23 09:04:16;;;;;;;;;;;20.20;65.30;;;;;;5096156;28;20002;-55
2023/09/23 09:06:48;;;;;;;;;;;20.20;65.30;;;;;;5095963;28;20013;-56
2023/09/23 09:09:14;;;;;;;;;;;20.20;65.30;;;;;;5096016;28;19908;-55
2023/09/23 09:11:39;;;;;;;;;;;20.20;65.30;;;;;;5095944;28;19923;-54
2023/09/23 09:14:05;;;;;;;;;;;20.20;65.20;;;;;;5095919;28;19943;-54
2023/09/23 09:16:30;;;;;;;;;;;20.20;65.30;;;;;;5094550;28;19916;-55
2023/09/23 09:18:56;;;;;;;;;;;20.20;65.30;;;;;;5095796;28;19908;-54
2023/09/23 09:21:21;;;;;;;;;;;20.20;65.30;;;;;;5095894;28;19918;-55
2023/09/23 09:23:47;;;;;;;;;;;20.20;65.40;;;;;;5095240;28;19958;-54
2023/09/23 09:26:12;;;;;;;;;;;20.20;65.40;;;;;;5095523;28;19908;-54
2023/09/23 09:28:38;;;;;;;;;;;20.20;65.40;;;;;;5095588;28;19931;-55
2023/09/23 09:31:04;;;;;;;;;;;20.20;65.50;;;;;;5095434;28;20256;-55
2023/09/23 09:33:31;;;;;;;;;;;20.20;65.40;;;;;;5094215;28;19915;-55
2023/09/23 09:35:56;;;;;;;;;;;20.20;65.60;;;;;;5095496;28;19909;-54
2023/09/23 09:38:23;;;;;;;;;;;20.20;65.60;;;;;;5095409;28;19919;-53
2023/09/23 09:40:48;;;;;;;;;;;20.20;65.60;;;;;;5095549;28;20405;-54
2023/09/23 09:43:14;;;;;;;;;;;20.20;65.50;;;;;;5094080;28;20346;-54
2023/09/23 09:45:42;;;;;;;;;;;20.20;65.40;;;;;;5094109;28;19919;-54
2023/09/23 09:48:08;;;;;;;;;;;20.20;65.40;;;;;;5095210;28;19915;-54
2023/09/23 09:50:34;;;;;;;;;;;20.20;65.30;;;;;;5096501;28;19924;-55
2023/09/23 09:53:00;;;;;;;;;;;20.20;65.20;;;;;;5097437;28;20375;-54
2023/09/23 09:55:25;;;;;;;;;;;20.20;65.20;;;;;;5115351;28;19914;-55
2023/09/23 09:57:54;;;;;;;;;;;20.20;65.20;;;;;;5115456;28;20379;-54
2023/09/23 10:02:55;;;;;;;;;;;20.20;65.20;;;;;;5122189;28;19914;-54
2023/09/23 10:05:22;;;;;;;;;;;20.20;65.10;;;;;;5115586;28;19914;-54
2023/09/23 10:07:48;;;;;;;;;;;20.10;65.00;;;;;;5115171;28;20010;-54
2023/09/23 10:10:14;;;;;;;;;;;20.20;65.00;;;;;;5097070;28;19908;-54
2023/09/23 10:12:47;;;;;;;;;;;20.20;64.90;;;;;;5115165;28;19939;-54
2023/09/23 10:15:12;;;;;;;;;;;20.20;65.00;;;;;;5115101;28;20394;-53
2023/09/23 10:17:41;;;;;;;;;;;20.20;65.00;;;;;;5096733;28;19958;-55
2023/09/23 10:20:13;;;;;;;;;;;20.20;64.90;;;;;;5115009;28;19908;-55
2023/09/23 10:22:39;;;;;;;;;;;20.20;64.80;;;;;;5114903;28;19914;-54
2023/09/23 10:25:06;;;;;;;;;;;20.20;64.80;;;;;;5096626;28;19912;-54
2023/09/23 10:27:32;;;;;;;;;;;20.10;64.70;;;;;;5096969;28;19912;-55
2023/09/23 10:29:58;;;;;;;;;;;20.10;64.70;;;;;;5096477;28;19991;-53
2023/09/23 10:32:23;;;;;;;;;;;20.10;64.60;;;;;;5114645;28;19912;-55
2023/09/23 10:34:53;;;;;;;;;;;20.20;64.80;;;;;;5114289;28;19912;-54
2023/09/23 10:37:29;;;;;;;;;;;20.20;64.80;;;;;;5096031;28;19908;-55
2023/09/23 10:39:55;;;;;;;;;;;20.20;64.80;;;;;;5114671;28;20290;-54
2023/09/23 10:42:21;;;;;;;;;;;20.10;64.70;;;;;;5114606;28;19915;-54
2023/09/23 10:44:49;;;;;;;;;;;20.10;64.80;;;;;;5114543;28;20355;-54
2023/09/23 10:47:14;;;;;;;;;;;20.20;64.70;;;;;;5096186;28;19915;-53
2023/09/23 10:49:40;;;;;;;;;;;20.20;64.60;;;;;;5114354;28;20002;-55
2023/09/23 10:52:05;;;;;;;;;;;20.20;64.60;;;;;;5114147;28;19920;-55
2023/09/23 10:54:31;;;;;;;;;;;20.20;64.60;;;;;;5114215;28;19962;-55
2023/09/23 10:56:58;;;;;;;;;;;20.20;64.60;;;;;;5114149;28;19907;-54
2023/09/23 10:59:23;;;;;;;;;;;20.20;64.50;;;;;;5114161;28;20378;-55
2023/09/23 11:01:49;;;;;;;;;;;20.20;64.40;;;;;;5114652;28;19957;-55
2023/09/23 11:04:15;;;;;;;;;;;20.30;64.40;;;;;;5114195;28;19907;-54
2023/09/23 11:06:40;;;;;;;;;;;20.20;64.00;;;;;;5113986;28;19912;-55
2023/09/23 11:09:06;;;;;;;;;;;20.30;64.10;;;;;;5114205;28;19908;-55
2023/09/23 11:11:34;;;;;;;;;;;20.30;63.90;;;;;;5113734;28;19915;-54
2023/09/23 11:14:00;;;;;;;;;;;20.30;63.80;;;;;;5113763;28;19914;-55
2023/09/23 11:16:25;;;;;;;;;;;20.30;63.70;;;;;;5113852;28;19908;-54
2023/09/23 11:18:52;;;;;;;;;;;20.30;63.60;;;;;;5113823;28;19931;-54
2023/09/23 11:21:17;;;;;;;;;;;20.30;63.50;;;;;;5113885;28;20274;-54
2023/09/23 11:23:43;;;;;;;;;;;20.30;63.40;;;;;;5113814;28;19939;-55
2023/09/23 11:26:08;;;;;;;;;;;20.30;63.40;;;;;;5113727;28;19998;-54
2023/09/23 11:28:34;;;;;;;;;;;20.30;63.30;;;;;;5095448;28;20322;-54
2023/09/23 11:30:59;;;;;;;;;;;20.30;63.20;;;;;;5095368;28;19912;-55
2023/09/23 11:33:25;;;;;;;;;;;20.20;63.00;;;;;;5113695;28;20284;-54
2023/09/23 11:35:50;;;;;;;;;;;20.30;63.20;;;;;;5113653;28;19915;-55
2023/09/23 11:38:17;;;;;;;;;;;20.30;63.10;;;;;;5113745;28;19908;-55
2023/09/23 11:40:42;;;;;;;;;;;20.30;63.10;;;;;;5095138;28;19912;-54
2023/09/23 11:43:08;;;;;;;;;;;20.20;62.80;;;;;;5113591;28;19933;-55
2023/09/23 11:45:33;;;;;;;;;;;20.20;62.70;;;;;;5113476;28;19908;-55
2023/09/23 11:47:59;;;;;;;;;;;20.20;62.50;;;;;;5113307;28;20356;-54
2023/09/23 11:50:25;;;;;;;;;;;20.20;62.60;;;;;;5113213;28;20006;-54
2023/09/23 11:52:52;;;;;;;;;;;20.20;62.20;;;;;;5078289;28;20283;-54
2023/09/23 11:55:18;;;;;;;;;;;20.20;62.10;;;;;;5113341;28;19908;-54
2023/09/23 11:57:43;;;;;;;;;;;20.20;62.10;;;;;;5113369;28;19957;-55
2023/09/23 12:00:13;;;;;;;;;;;20.20;62.20;;;;;;5113383;28;19912;-54
2023/09/23 12:02:41;;;;;;;;;;;20.20;62.30;;;;;;5113270;28;19919;-54
2023/09/23 12:05:13;;;;;;;;;;;20.20;62.40;;;;;;5113350;28;19911;-55
2023/09/23 12:07:39;;;;;;;;;;;20.20;62.30;;;;;;5113165;28;19920;-53
2023/09/23 12:10:05;;;;;;;;;;;20.20;62.30;;;;;;5113275;28;19993;-54
2023/09/23 12:12:31;;;;;;;;;;;20.10;62.10;;;;;;5094967;28;19912;-55
2023/09/23 12:14:56;;;;;;;;;;;20.10;62.10;;;;;;5113115;28;19914;-54
2023/09/23 12:17:21;;;;;;;;;;;20.20;62.10;;;;;;5113044;28;19916;-54
2023/09/23 12:19:47;;;;;;;;;;;20.20;62.00;;;;;;5113257;28;19907;-54
2023/09/23 12:22:15;;;;;;;;;;;20.20;61.90;;;;;;5113043;28;19908;-54
2023/09/23 12:24:44;;;;;;;;;;;20.20;61.80;;;;;;5113056;28;20313;-54
2023/09/23 12:27:09;;;;;;;;;;;20.20;61.80;;;;;;5113061;28;20432;-55
2023/09/23 12:29:35;;;;;;;;;;;20.20;61.80;;;;;;5113090;28;19912;-55
2023/09/23 12:32:00;;;;;;;;;;;20.20;61.70;;;;;;5112984;28;19912;-54
2023/09/23 12:34:26;;;;;;;;;;;20.30;61.90;;;;;;5113057;28;19908;-55
2023/09/23 12:36:51;;;;;;;;;;;20.30;61.90;;;;;;5113023;28;20308;-55
2023/09/23 12:39:17;;;;;;;;;;;20.20;61.90;;;;;;5113032;28;19908;-54
2023/09/23 12:41:43;;;;;;;;;;;20.20;62.00;;;;;;5112856;28;19908;-54
2023/09/23 12:44:08;;;;;;;;;;;20.20;62.10;;;;;;5112834;28;19915;-55
2023/09/23 12:46:34;;;;;;;;;;;20.20;62.30;;;;;;5112883;28;20295;-54
2023/09/23 12:48:59;;;;;;;;;;;20.20;62.30;;;;;;5112880;28;19908;-54
2023/09/23 12:51:25;;;;;;;;;;;20.20;62.30;;;;;;5112499;28;19920;-54
2023/09/23 12:53:50;;;;;;;;;;;20.30;62.40;;;;;;5094756;28;20359;-54
2023/09/23 12:56:17;;;;;;;;;;;20.20;62.20;;;;;;5094887;28;19908;-55
2023/09/23 12:58:43;;;;;;;;;;;20.20;62.30;;;;;;5113712;28;19935;-54
2023/09/23 13:01:08;;;;;;;;;;;20.20;62.40;;;;;;5116544;28;20360;-54
2023/09/23 13:03:34;;;;;;;;;;;20.30;62.50;;;;;;5116431;28;20276;-55
2023/09/23 13:05:59;;;;;;;;;;;20.30;62.40;;;;;;5116566;28;19958;-55
2023/09/23 13:08:25;;;;;;;;;;;20.30;62.30;;;;;;5116288;28;19930;-55
2023/09/23 13:10:51;;;;;;;;;;;20.30;62.20;;;;;;5116201;28;20021;-54
2023/09/23 13:13:17;;;;;;;;;;;20.30;62.20;;;;;;5116168;28;19961;-54
2023/09/23 13:15:42;;;;;;;;;;;20.40;62.20;;;;;;5116322;28;20275;-55
2023/09/23 13:18:09;;;;;;;;;;;20.30;62.30;;;;;;5116254;28;20002;-54
2023/09/23 13:20:34;;;;;;;;;;;20.40;62.30;;;;;;5116045;28;19908;-54
2023/09/23 13:23:00;;;;;;;;;;;20.40;62.20;;;;;;5116057;28;20295;-55
2023/09/23 13:25:25;;;;;;;;;;;20.40;62.10;;;;;;5115911;28;19959;-55
2023/09/23 13:27:52;;;;;;;;;;;20.40;61.90;;;;;;5115955;28;19915;-55
2023/09/23 13:30:18;;;;;;;;;;;20.40;61.90;;;;;;5115913;28;20360;-54
2023/09/23 13:32:44;;;;;;;;;;;20.40;61.90;;;;;;5097518;28;19912;-55
2023/09/23 13:35:09;;;;;;;;;;;20.50;61.80;;;;;;5115879;28;19908;-53
2023/09/23 13:37:35;;;;;;;;;;;20.50;61.70;;;;;;5115782;28;19976;-55
2023/09/23 13:40:01;;;;;;;;;;;20.50;61.60;;;;;;5115779;28;19998;-55
2023/09/23 13:42:26;;;;;;;;;;;20.50;61.60;;;;;;5115620;28;19915;-55
2023/09/23 13:44:52;;;;;;;;;;;20.50;61.60;;;;;;5115627;28;19912;-55
2023/09/23 13:47:17;;;;;;;;;;;20.50;61.50;;;;;;5115506;28;19961;-54
2023/09/23 13:49:43;;;;;;;;;;;20.50;61.50;;;;;;5115550;28;20003;-54
2023/09/23 13:52:09;;;;;;;;;;;20.50;61.60;;;;;;5115207;28;20398;-55
2023/09/23 13:54:34;;;;;;;;;;;20.50;61.60;;;;;;5115366;28;19915;-55
2023/09/23 13:57:00;;;;;;;;;;;20.50;61.50;;;;;;5115494;28;19958;-54
2023/09/23 13:59:25;;;;;;;;;;;20.50;61.40;;;;;;5115329;28;19908;-55
2023/09/23 14:01:51;;;;;;;;;;;20.50;61.60;;;;;;5115274;28;19908;-55
2023/09/23 14:04:16;;;;;;;;;;;20.50;61.70;;;;;;5097037;28;19908;-54
2023/09/23 14:06:42;;;;;;;;;;;20.50;61.60;;;;;;5115215;28;20405;-55
2023/09/23 14:09:09;;;;;;;;;;;20.50;61.70;;;;;;5097025;28;19990;-54
2023/09/23 14:11:35;;;;;;;;;;;20.50;61.70;;;;;;5115049;28;20267;-53